MSC Luisa — H9XU — position and weather

sailwx.info

Track history (hours):
 
Tides and Currents Weather Stations Pressure Air Temp Water Temp Dewpoint Dewpoint Depression Visibility Wind Speed Wind Dir Waves Ship Positions

MSC Luisa

Last reported at 2017-Sep-18 07:23 UTC. Time now 2017-Sep-19 13:53 UTC.
Position S 24°15' W 045°59'.

Length 300 m; draft 12.3 m.

Type: Ship. MMSI: 355308000.

Date/timePositionNaut miles runAvg speedWind from/ knotsBaromVisibWave heightAir tempDewpointWater temp
2017-Sep-18 07:23S 24°15' W 045°59'719.6
2017-Sep-18 07:00S 24°15' W 046°07'1019.4
2017-Sep-18 06:30S 24°14' W 046°18'917.5
2017-Sep-18 06:00S 24°07' W 046°23'714.9
2017-Sep-18 05:30S 23°60' W 046°20'3 4.9
2017-Sep-18 04:59S 23°58' W 046°18'4 3.0
2017-Sep-18 03:46S 23°55' W 046°21'0 0.0
2017-Sep-18 03:28S 23°55' W 046°21'0 0.0
2017-Sep-17 18:22S 23°55' W 046°21'0 0.0
2017-Sep-17 17:58S 23°55' W 046°21'0 0.0
2017-Sep-17 17:28S 23°55' W 046°21'0 0.0
2017-Sep-17 11:10S 23°55' W 046°21'0 0.0
2017-Sep-17 04:20S 23°55' W 046°21'2 3.4
2017-Sep-17 03:39S 23°57' W 046°19'1 8.8
2017-Sep-17 03:29S 23°58' W 046°18'3 5.9
2017-Sep-17 03:00S 23°60' W 046°20'510.4
2017-Sep-17 02:30S 24°05' W 046°22'3 5.4
2017-Sep-17 02:00S 24°07' W 046°23'1 1.6
2017-Sep-17 01:30S 24°08' W 046°23'3 5.9
2017-Sep-17 01:00S 24°11' W 046°24'5 9.1
2017-Sep-17 00:30S 24°15' W 046°26'5 9.5
2017-Sep-17 00:00S 24°20' W 046°27'5 9.9
2017-Sep-16 23:30S 24°25' W 046°28'815.9
2017-Sep-16 23:00S 24°32' W 046°32'917.6
2017-Sep-16 22:30S 24°39' W 046°37'917.5
2017-Sep-16 22:00S 24°46' W 046°43'917.6
2017-Sep-16 21:30S 24°53' W 046°49'917.4
2017-Sep-16 20:59S 25°00' W 046°55'917.4
2017-Sep-16 20:29S 25°07' W 047°01'917.5
2017-Sep-16 19:58S 25°14' W 047°07'  
2017-Sep-12 14:19S 25°30' W 047°21'514.9
2017-Sep-12 14:00S 25°28' W 047°17'815.1
2017-Sep-12 13:30S 25°23' W 047°10'815.2
2017-Sep-12 13:00S 25°18' W 047°03'814.7
2017-Sep-12 12:26S 25°12' W 046°57'715.3
2017-Sep-12 12:01S 25°06' W 046°54'815.3
2017-Sep-12 11:30S 24°59' W 046°50'815.3
2017-Sep-12 11:00S 24°52' W 046°47'815.4
2017-Sep-12 10:30S 24°45' W 046°43'815.4
2017-Sep-12 10:00S 24°38' W 046°40'815.2
2017-Sep-12 09:30S 24°31' W 046°37'715.1
2017-Sep-12 09:00S 24°24' W 046°33'815.1
2017-Sep-12 08:30S 24°18' W 046°30'714.9
2017-Sep-12 08:00S 24°11' W 046°26'714.1
2017-Sep-12 07:30S 24°05' W 046°23'5 9.2
2017-Sep-12 07:00S 24°01' W 046°20'4 6.6
2017-Sep-12 06:28S 23°58' W 046°18'4 7.8
2017-Sep-12 06:00S 23°55' W 046°20'1 1.0
2017-Sep-12 05:17S 23°55' W 046°21'0 0.0
2017-Sep-12 03:35S 23°55' W 046°21'0 0.0
2017-Sep-12 03:17S 23°55' W 046°21'0 0.0
2017-Sep-12 02:59S 23°55' W 046°21'0 0.0
2017-Sep-12 02:11S 23°55' W 046°21'0 0.0
2017-Sep-11 23:59S 23°55' W 046°21'0 0.1
2017-Sep-11 23:29S 23°55' W 046°21'0 0.1
2017-Sep-11 22:47S 23°55' W 046°21'0 0.0
2017-Sep-11 22:29S 23°55' W 046°21'0 0.0
2017-Sep-11 18:50S 23°55' W 046°21'0 0.0
2017-Sep-11 17:59S 23°55' W 046°21'0 0.0
2017-Sep-11 17:29S 23°55' W 046°21'0 0.0
2017-Sep-11 16:53S 23°55' W 046°21'0 0.0
2017-Sep-11 15:41S 23°55' W 046°21'0 0.0
2017-Sep-11 15:29S 23°55' W 046°21'0 0.0
2017-Sep-11 08:57S 23°55' W 046°21'0 0.5
2017-Sep-11 08:08S 23°55' W 046°21'2 5.1
2017-Sep-11 07:43S 23°56' W 046°19'2 8.4
2017-Sep-11 07:28S 23°58' W 046°18'3 5.7
2017-Sep-11 07:00S 23°60' W 046°20'5 9.0
2017-Sep-11 06:30S 24°04' W 046°22'4 8.9
2017-Sep-11 06:00S 24°08' W 046°23'510.5
2017-Sep-11 05:30S 24°13' W 046°21'714.3
2017-Sep-11 05:00S 24°19' W 046°16'816.1
2017-Sep-11 04:30S 24°23' W 046°08'917.8
2017-Sep-11 04:00S 24°24' W 045°58'1019.8
2017-Sep-11 03:30S 24°22' W 045°48'1019.9
2017-Sep-11 03:00S 24°20' W 045°37'  
Track history (hours):
 
Tides and Currents Weather Stations Pressure Air Temp Water Temp Dewpoint Dewpoint Depression Visibility Wind Speed Wind Dir Waves Ship Positions

MSC Luisa

Last reported at 2017-Sep-18 07:23 UTC. Time now 2017-Sep-19 13:53 UTC.
Position S 24°15' W 045°59'.

Length 300 m; draft 12.3 m.

Type: Ship. MMSI: 355308000.

Date/timePositionNaut miles runAvg speedWind from/ knotsBaromVisibWave heightAir tempDewpointWater temp
2017-Sep-18 07:23S 24°15' W 045°59'719.6
2017-Sep-18 07:00S 24°15' W 046°07'1019.4
2017-Sep-18 06:30S 24°14' W 046°18'917.5
2017-Sep-18 06:00S 24°07' W 046°23'714.9
2017-Sep-18 05:30S 23°60' W 046°20'3 4.9
2017-Sep-18 04:59S 23°58' W 046°18'4 3.0
2017-Sep-18 03:46S 23°55' W 046°21'0 0.0
2017-Sep-18 03:28S 23°55' W 046°21'0 0.0
2017-Sep-17 18:22S 23°55' W 046°21'0 0.0
2017-Sep-17 17:58S 23°55' W 046°21'0 0.0
2017-Sep-17 17:28S 23°55' W 046°21'0 0.0
2017-Sep-17 11:10S 23°55' W 046°21'0 0.0
2017-Sep-17 04:20S 23°55' W 046°21'2 3.4
2017-Sep-17 03:39S 23°57' W 046°19'1 8.8
2017-Sep-17 03:29S 23°58' W 046°18'3 5.9
2017-Sep-17 03:00S 23°60' W 046°20'510.4
2017-Sep-17 02:30S 24°05' W 046°22'3 5.4
2017-Sep-17 02:00S 24°07' W 046°23'1 1.6
2017-Sep-17 01:30S 24°08' W 046°23'3 5.9
2017-Sep-17 01:00S 24°11' W 046°24'5 9.1
2017-Sep-17 00:30S 24°15' W 046°26'5 9.5
2017-Sep-17 00:00S 24°20' W 046°27'5 9.9
2017-Sep-16 23:30S 24°25' W 046°28'815.9
2017-Sep-16 23:00S 24°32' W 046°32'917.6
2017-Sep-16 22:30S 24°39' W 046°37'917.5
2017-Sep-16 22:00S 24°46' W 046°43'917.6
2017-Sep-16 21:30S 24°53' W 046°49'917.4
2017-Sep-16 20:59S 25°00' W 046°55'917.4
2017-Sep-16 20:29S 25°07' W 047°01'917.5
2017-Sep-16 19:58S 25°14' W 047°07'  
2017-Sep-12 14:19S 25°30' W 047°21'514.9
2017-Sep-12 14:00S 25°28' W 047°17'815.1
2017-Sep-12 13:30S 25°23' W 047°10'815.2
2017-Sep-12 13:00S 25°18' W 047°03'814.7
2017-Sep-12 12:26S 25°12' W 046°57'715.3
2017-Sep-12 12:01S 25°06' W 046°54'815.3
2017-Sep-12 11:30S 24°59' W 046°50'815.3
2017-Sep-12 11:00S 24°52' W 046°47'815.4
2017-Sep-12 10:30S 24°45' W 046°43'815.4
2017-Sep-12 10:00S 24°38' W 046°40'815.2
2017-Sep-12 09:30S 24°31' W 046°37'715.1
2017-Sep-12 09:00S 24°24' W 046°33'815.1
2017-Sep-12 08:30S 24°18' W 046°30'714.9
2017-Sep-12 08:00S 24°11' W 046°26'714.1
2017-Sep-12 07:30S 24°05' W 046°23'5 9.2
2017-Sep-12 07:00S 24°01' W 046°20'4 6.6
2017-Sep-12 06:28S 23°58' W 046°18'4 7.8
2017-Sep-12 06:00S 23°55' W 046°20'1 1.0
2017-Sep-12 05:17S 23°55' W 046°21'0 0.0
2017-Sep-12 03:35S 23°55' W 046°21'0 0.0
2017-Sep-12 03:17S 23°55' W 046°21'0 0.0
2017-Sep-12 02:59S 23°55' W 046°21'0 0.0
2017-Sep-12 02:11S 23°55' W 046°21'0 0.0
2017-Sep-11 23:59S 23°55' W 046°21'0 0.1
2017-Sep-11 23:29S 23°55' W 046°21'0 0.1
2017-Sep-11 22:47S 23°55' W 046°21'0 0.0
2017-Sep-11 22:29S 23°55' W 046°21'0 0.0
2017-Sep-11 18:50S 23°55' W 046°21'0 0.0
2017-Sep-11 17:59S 23°55' W 046°21'0 0.0
2017-Sep-11 17:29S 23°55' W 046°21'0 0.0
2017-Sep-11 16:53S 23°55' W 046°21'0 0.0
2017-Sep-11 15:41S 23°55' W 046°21'0 0.0
2017-Sep-11 15:29S 23°55' W 046°21'0 0.0
2017-Sep-11 08:57S 23°55' W 046°21'0 0.5
2017-Sep-11 08:08S 23°55' W 046°21'2 5.1
2017-Sep-11 07:43S 23°56' W 046°19'2 8.4
2017-Sep-11 07:28S 23°58' W 046°18'3 5.7
2017-Sep-11 07:00S 23°60' W 046°20'5 9.0
2017-Sep-11 06:30S 24°04' W 046°22'4 8.9
2017-Sep-11 06:00S 24°08' W 046°23'510.5
2017-Sep-11 05:30S 24°13' W 046°21'714.3
2017-Sep-11 05:00S 24°19' W 046°16'816.1
2017-Sep-11 04:30S 24°23' W 046°08'917.8
2017-Sep-11 04:00S 24°24' W 045°58'1019.8
2017-Sep-11 03:30S 24°22' W 045°48'1019.9
2017-Sep-11 03:00S 24°20' W 045°37'  

Dump ship's entire track history